Friday, March 23, 2018, 3:12 PM GMT
Back to Local

CYZX, Greenwood, N. S.

Location: , , Canada Lat: 44.983
Local Time: 3:12 PM GMT (15:12 GMT) Lon: -64.917
Time Zone: GMT Elev: 91 ft

Show me the last for .
Show Decoded

2018-03-23 14:00 METAR CYZX 231400Z 34009G15KT 15SM FEW018 OVC026 01/M01 A2976 RMK SC2SC6 SLP079
2018-03-23 13:53 METAR CYZX 231353Z 34010G16KT 15SM FEW018 OVC026 01/M01 A2975 RMK SC2SC6 SLP077
2018-03-23 13:00 METAR CYZX 231300Z 35012KT 12SM -SHSN SCT018 OVC026 00/M02 A2973 RMK SC3SC5
                 SLP068 =
2018-03-23 12:00 METAR CYZX 231200Z 35012G17KT 15SM -SHSN SCT020 OVC026 00/M02 A2970 RMK SC3SC5
                 PCPN VRY LGT SLP060 =
2018-03-23 11:08 METAR CYZX 231108Z 35012KT 15SM -SHSN SCT020 OVC026 00/M02 A2968 RMK SC3SC5 PCPN
                 VRY LGT SLP053 =
2018-03-23 11:00 METAR CYZX 231100Z 34014G19KT 12SM -SHSN OVC021 00/M02 A2968 RMK SC8 PCPN VRY
                 LGT SLP052 =
2018-03-23 10:09 METAR CYZX 231009Z 34013G18KT 12SM -SHSN OVC020 00/M01 A2964 RMK SC8 PCPN VRY
                 LGT SLP038 =
2018-03-23 10:00 METAR CYZX 231000Z 34013G18KT 12SM OVC020 00/M01 A2963 RMK SC8 /S03/ SLP037 =
2018-03-23 09:34 METAR CYZX 230934Z 34012G24KT 15SM OVC020 00/M01 A2961 RMK SC8 SLP030 =
2018-03-23 09:00 METAR CYZX 230900Z 34010G16KT 10SM -SN OVC020 00/M01 A2960 RMK SC8 /S02/ SLP025
2018-03-23 08:00 METAR CYZX 230800Z 35009G17KT 3SM -SN OVC020 00/M01 A2957 RMK SC8 SLP014 =
2018-03-23 07:30 METAR CYZX 230730Z 01008G15KT 3SM -SN FEW007 OVC018 M00/M01 A2955 RMK SF2SC6
                 SLP008 =
2018-03-23 07:00 METAR CYZX 230700Z 36018KT 2SM -SN BLSN FEW008 OVC020 M00/M01 A2954 RMK SF2SC6
                 /S01/ SLP005 =
2018-03-23 06:00 METAR CYZX 230600Z 36012G20KT 1 1/2SM -SN BLSN SCT008 OVC020 M00/M01 A2952 RMK
                 SF3SC5 SLP997 =
2018-03-23 05:30 METAR CYZX 230530Z 35014KT 1 1/2SM -SN BLSN SCT008 OVC016 M00/M01 A2949 RMK
                 SF3SC5 SLP987 =
2018-03-23 05:00 METAR CYZX 230500Z 36021G29KT 1 1/4SM -SN BLSN SCT008 OVC018 M00/M01 A2946 RMK
                 SF3SC5 /S04/ SLP978 =
2018-03-23 04:00 METAR CYZX 230400Z 36016G27KT 1SM -SN BLSN SCT008 OVC016 M00/M02 A2944 RMK
                 SF3SC5 SLP969 =
2018-03-23 03:45 METAR CYZX 230345Z 36020G27KT 1SM -SN BLSN SCT009 OVC020 M01/M01 A2944 RMK
                 SF3SC5 SLP969 =
2018-03-23 03:00 METAR CYZX 230300Z 36017G24KT 3SM -SN FEW009 OVC022 M00/M02 A2943 RMK SF2SC6 VIS
                 VRB 2-4 /S01/ OCNL BLSN SLP966 =
2018-03-23 02:00 METAR CYZX 230200Z 01021G34KT 3SM -SN SCT008 OVC020 M00/M02 A2941 RMK SF3SC5 VIS
                 VRB 2-4 OCNL BLSN SLP961 =
2018-03-23 01:00 METAR CYZX 230100Z 36023G30KT 3SM -SN FEW008 OVC020 M01/M02 A2940 RMK SF2SC6 VIS
                 VRB 2-4 SLP957 =
2018-03-23 00:30 METAR CYZX 230030Z 01018G29KT 3SM -SN FEW008 OVC020 M01/M02 A2940 RMK SF2SC6 VIS
                 VRB 2-4 SLP957 =
2018-03-23 00:00 METAR CYZX 230000Z 01021G30KT 1 1/2SM -SN SCT020 OVC038 M01/M02 A2939 RMK SC3SC5
                 SLP954 =
2018-03-22 23:00 METAR CYZX 222300Z 01019G29KT 1 1/2SM -SN SCT015 OVC036 M01/M02 A2939 RMK SC4SC4
                 SLP953 =
2018-03-22 22:30 METAR CYZX 222230Z 02019G29KT 1 1/2SM -SN SCT020 OVC038 M01/M02 A2939 RMK SC3SC5
                 SLP952 =
2018-03-22 22:00 METAR CYZX 222200Z 02022G39KT 3/4SM -SN BLSN FEW007 BKN013 OVC038 M01/M02 A2940
                 RMK SF2SC4SC2 SLP956 =
2018-03-22 21:20 METAR CYZX 222120Z 03020G29KT 3/4SM -SN BLSN SCT007 OVC013 M01/M02 A2940 RMK
                 SF3SC5 SLP958 =
2018-03-22 21:00 METAR CYZX 222100Z 02020G34KT 3/8SM -SN BLSN VV005 M01/M02 A2941 RMK SN8 /S04/
                 SLP959 =
2018-03-22 20:26 METAR CYZX 222026Z 02021G41KT 3/8SM -SN BLSN VV005 M01/M01 A2941 RMK SN8 SLP961
2018-03-22 20:00 METAR CYZX 222000Z 02020G35KT 1/2SM -SN BLSN VV005 M01/M01 A2942 RMK SN8 /S03/
                 SLP964 =
2018-03-22 19:23 METAR CYZX 221923Z 03023G32KT 1/2SM -SN BLSN VV005 M01/M01 A2943 RMK SN8 SLP968
2018-03-22 19:00 METAR CYZX 221900Z 02021G29KT 3/8SM -SN BLSN VV004 M00/M01 A2944 RMK SN8 /S02/
                 SLP970 =
2018-03-22 18:30 METAR CYZX 221830Z 02020G26KT 3/8SM SN BLSN VV004 M00/M01 A2944 RMK SN8 SLP972 =
2018-03-22 18:00 METAR CYZX 221800Z CCA 04021G30KT 3/8SM SN BLSN VV004 M00/M01 A2946 RMK SN8
                 /S10/ SLP976 =
2018-03-22 17:00 METAR CYZX 221700Z 03021G28KT 3/8SM SN BLSN VV004 M00/M00 A2949 RMK SN8 /S06/
                 SLP989 =
2018-03-22 16:00 METAR CYZX 221600Z 04018G25KT 3/8SM SN BLSN VV004 M00/M01 A2953 RMK SN8 /S03/
                 SLP002 =
2018-03-22 15:35 METAR CYZX 221535Z 05017G25KT 3/8SM SN BLSN VV004 M00/M01 A2956 RMK SN8 SLP011 =
2018-03-22 15:27 METAR CYZX 221527Z 05018G25KT 5/8SM -SN BLSN SCT008 OVC014 M00/M01 A2957 RMK
                 SF4SC4 LTNG DTCTRS REP STRIKES 26 NM SE VIS VRB 3/8-1 SLP013 =

Support USWX by starting your Amazon purchase here.